Pagrindinis puslapis
METAR-TAF:

METAR-TAF

Oro uostai :

Rijadas, Saudo Arabija

platuma: 24-56N, ilguma: 046-43E, Aukštis: 614 m

Dabartinis oras

Ataskaita buvo paskelbta 46 minutes, ne 05:00 UTC
Vėjas 2 kt iš Pietų/Pietryčių
Temperatūra 12°C
Drėgmė 76%
Slėgis 1018 hPa
Matomumas 10 km arba daugiau
nėra debesų žemiau 1500 m ir nėra kamuolinių lietaus debesų

METAR: OERK 300500Z 16002KT CAVOK 12/08 Q1018 NOSIG

Laikas: 08:46 (05:46 UTC)

Prognozė

Ataskaita buvo paskelbta 6 valandos ir 46 minutes, ne 23:00 UTC
Prognozė galioja nuo 30 metu 00 UTC su 31 metu 06 UTC
Vėjas 10 kt iš Pietvakarių
Matomumas 10 km arba daugiau
nėra debesų žemiau 1500 m ir nėra kamuolinių lietaus debesų
Tapsmas
nuo 30 metu 06 UTC su 30 metu 08 UTC
Vėjas 15 kt iš Pietvakarių
Tapsmas
nuo 31 metu 00 UTC su 31 metu 02 UTC
Vėjas 8 kt iš Pietų/Pietryčių

TAF: OERK 292300Z 3000/3106 22010KT CAVOK BECMG 3006/3008 22015KT BECMG 3100/3102 15008KT

Orai ataskaitas ir orų prognozės (METAR, TAF).

turimą stotys yra geltonos ir raudonos taškus žemėlapyje.

Perkelti pele per norėdami pamatyti stoties vardą.

Tada spustelėkite, norėdami matyti oro stebėjimo ir prognozės.

Norėdami pakeisti žemėlapį: spustelėkite ant žalios mygtukų su juodo kryžiaus žemyn,; žalią mygtuką su brūkšneliu, jei norite nutolinti; arba žalių rodyklių gretimoms žemėlapius.


METAR-TAF: